Time;durP1;ratioP1;P1;durP2;ratioP2;P2;SDS_P1;SDS_P2;PMS_P1;PMS_P2;Temp;Humidity;BMP_temperature;BMP_pressure;BME280_temperature;BME280_humidity;BME280_pressure;Samples;Min_cycle;Max_cycle;Signal;HPM_P1;HPM_P2
2021/07/30 00:00:25;;;;;;;0.80;0.80;;;15.20;99.90;;;;;;4951634;28;20613;-77
2021/07/30 00:02:50;;;;;;;1.70;1.25;;;15.20;99.90;;;;;;4949671;28;20221;-78
2021/07/30 00:05:16;;;;;;;0.98;0.90;;;15.20;99.90;;;;;;4957712;29;20711;-78
2021/07/30 00:07:44;;;;;;;0.90;0.80;;;15.20;99.90;;;;;;4957792;29;21468;-78
2021/07/30 00:10:12;;;;;;;1.63;0.82;;;15.30;99.90;;;;;;4957832;29;20181;-78
2021/07/30 00:12:38;;;;;;;1.45;1.33;;;15.30;99.90;;;;;;4957099;29;20251;-78
2021/07/30 00:15:07;;;;;;;1.80;0.90;;;15.30;99.90;;;;;;4956892;29;20296;-78
2021/07/30 00:17:34;;;;;;;1.17;0.98;;;15.30;99.90;;;;;;4958186;29;20256;-78
2021/07/30 00:20:04;;;;;;;1.67;1.00;;;15.20;99.90;;;;;;4957897;28;20193;-78
2021/07/30 00:22:30;;;;;;;4.03;1.52;;;15.20;99.90;;;;;;4958100;29;20695;-78
2021/07/30 00:24:55;;;;;;;0.82;0.82;;;15.10;99.90;;;;;;4957762;28;20372;-77
2021/07/30 00:27:21;;;;;;;1.70;1.08;;;15.10;99.90;;;;;;4958154;28;20213;-77
2021/07/30 00:29:46;;;;;;;1.20;1.00;;;15.10;99.90;;;;;;4958223;28;20197;-78
2021/07/30 00:32:12;;;;;;;1.80;0.90;;;15.00;99.90;;;;;;4957113;29;20495;-78
2021/07/30 00:34:37;;;;;;;1.30;0.90;;;15.00;99.90;;;;;;4957472;28;20190;-78
2021/07/30 00:37:03;;;;;;;1.45;0.90;;;15.00;99.90;;;;;;4957302;29;20237;-76
2021/07/30 00:39:29;;;;;;;2.53;1.67;;;14.90;99.90;;;;;;4957820;29;20193;-78
2021/07/30 00:41:54;;;;;;;0.90;0.80;;;14.90;99.90;;;;;;4957872;28;20205;-78
2021/07/30 00:44:20;;;;;;;1.88;1.15;;;14.90;99.90;;;;;;4956323;28;20196;-78
2021/07/30 00:46:45;;;;;;;1.30;1.17;;;14.80;99.90;;;;;;4957733;29;20277;-78
2021/07/30 00:49:11;;;;;;;1.38;1.00;;;14.80;99.90;;;;;;4956944;29;20211;-78
2021/07/30 00:51:38;;;;;;;1.02;0.93;;;14.80;99.90;;;;;;4957645;29;20217;-78
2021/07/30 00:54:04;;;;;;;1.48;1.38;;;14.80;99.90;;;;;;4957366;28;20193;-78
2021/07/30 00:56:31;;;;;;;1.17;1.10;;;14.80;99.90;;;;;;4957447;28;20221;-78
2021/07/30 00:58:58;;;;;;;1.52;0.95;;;14.80;99.90;;;;;;4957295;29;20185;-78
2021/07/30 01:01:24;;;;;;;2.00;1.20;;;14.70;99.90;;;;;;4957552;29;20186;-77
2021/07/30 01:03:50;;;;;;;2.03;1.35;;;14.80;99.90;;;;;;4957637;28;20240;-77
2021/07/30 01:06:15;;;;;;;1.70;1.00;;;14.70;99.90;;;;;;4957811;29;20290;-77
2021/07/30 01:08:41;;;;;;;1.75;1.10;;;14.70;99.90;;;;;;4956589;28;20196;-78
2021/07/30 01:11:06;;;;;;;2.35;1.45;;;14.70;99.90;;;;;;4957217;29;20724;-78
2021/07/30 01:13:32;;;;;;;1.05;0.95;;;14.70;99.90;;;;;;4955346;29;20297;-78
2021/07/30 01:15:58;;;;;;;4.68;1.20;;;14.70;99.90;;;;;;4957151;29;20249;-78
2021/07/30 01:18:23;;;;;;;1.98;1.08;;;14.70;99.90;;;;;;4957349;29;20188;-78
2021/07/30 01:21:06;;;;;;;1.38;1.08;;;14.70;99.90;;;;;;4957017;28;20248;-77
2021/07/30 01:23:31;;;;;;;1.52;1.42;;;14.60;99.90;;;;;;4956953;29;20182;-78
2021/07/30 01:25:57;;;;;;;2.00;1.08;;;14.60;99.90;;;;;;4957464;29;20284;-78
2021/07/30 01:28:22;;;;;;;3.83;1.10;;;14.70;99.90;;;;;;4957241;29;20198;-78
2021/07/30 01:30:48;;;;;;;1.33;1.23;;;14.60;99.90;;;;;;4957434;28;20675;-78
2021/07/30 01:33:13;;;;;;;1.20;1.10;;;14.60;99.90;;;;;;4956269;29;20189;-77
2021/07/30 01:35:39;;;;;;;1.27;1.17;;;14.60;99.90;;;;;;4956204;28;20221;-78
2021/07/30 01:38:04;;;;;;;1.83;1.20;;;14.60;99.90;;;;;;4957313;29;20201;-78
2021/07/30 01:40:30;;;;;;;1.42;1.05;;;14.60;99.90;;;;;;4956678;29;20198;-77
2021/07/30 01:42:55;;;;;;;2.35;1.20;;;14.50;99.90;;;;;;4956050;29;20205;-78
2021/07/30 01:45:21;;;;;;;2.83;1.13;;;14.50;99.90;;;;;;4957121;28;20220;-78
2021/07/30 01:47:47;;;;;;;1.58;1.30;;;14.50;99.90;;;;;;4956681;28;20264;-78
2021/07/30 01:50:12;;;;;;;1.10;1.00;;;14.50;99.90;;;;;;4956095;29;20186;-78
2021/07/30 01:52:38;;;;;;;1.48;1.20;;;14.50;99.90;;;;;;4957384;28;20185;-78
2021/07/30 01:55:04;;;;;;;1.35;1.10;;;14.50;99.90;;;;;;4956762;28;20201;-78
2021/07/30 01:57:30;;;;;;;2.63;1.35;;;14.50;99.90;;;;;;4957339;28;20241;-77
2021/07/30 01:59:55;;;;;;;1.85;1.20;;;14.60;99.90;;;;;;4956788;28;20183;-78
2021/07/30 02:02:21;;;;;;;1.23;1.13;;;14.60;99.90;;;;;;4955580;29;20189;-78
2021/07/30 02:04:46;;;;;;;1.33;1.08;;;14.60;99.90;;;;;;4957179;28;20182;-78
2021/07/30 02:07:12;;;;;;;1.23;0.95;;;14.70;99.90;;;;;;4957046;29;20215;-77
2021/07/30 02:09:38;;;;;;;2.88;0.98;;;14.70;99.90;;;;;;4957282;29;20185;-78
2021/07/30 02:12:04;;;;;;;2.53;1.20;;;14.70;99.90;;;;;;4957599;28;20201;-78
2021/07/30 02:14:30;;;;;;;2.17;0.90;;;14.70;99.90;;;;;;4956571;28;20684;-77
2021/07/30 02:16:58;;;;;;;3.00;1.25;;;14.60;99.90;;;;;;4956953;29;20607;-78
2021/07/30 02:19:24;;;;;;;1.95;1.00;;;14.50;99.90;;;;;;4955047;29;20185;-78
2021/07/30 02:21:52;;;;;;;1.65;1.10;;;14.50;99.90;;;;;;4956736;29;20190;-77
2021/07/30 02:24:19;;;;;;;1.38;1.27;;;14.60;99.90;;;;;;4955748;29;20600;-78
2021/07/30 02:26:45;;;;;;;1.00;1.00;;;14.50;99.90;;;;;;4956610;29;20229;-78
2021/07/30 02:29:11;;;;;;;1.25;1.15;;;14.50;99.90;;;;;;4956147;29;20186;-78
2021/07/30 02:31:36;;;;;;;2.72;1.50;;;14.50;99.90;;;;;;4956179;29;20288;-78
2021/07/30 02:34:02;;;;;;;2.92;1.17;;;14.40;99.90;;;;;;4956446;28;20668;-78
2021/07/30 02:36:28;;;;;;;1.63;1.52;;;14.40;99.90;;;;;;4954897;29;20279;-78
2021/07/30 02:38:54;;;;;;;1.70;1.13;;;14.40;99.90;;;;;;4956525;28;20188;-77
2021/07/30 02:41:20;;;;;;;1.48;1.00;;;14.30;99.90;;;;;;4956884;28;20213;-78
2021/07/30 02:43:46;;;;;;;2.28;1.80;;;14.30;99.90;;;;;;4956389;28;20266;-78
2021/07/30 02:46:16;;;;;;;1.33;1.23;;;14.30;99.90;;;;;;4956806;28;20265;-76
2021/07/30 02:48:42;;;;;;;2.28;1.10;;;14.30;99.90;;;;;;4961160;29;20206;-78
2021/07/30 02:51:07;;;;;;;1.92;1.20;;;14.30;99.90;;;;;;4959481;29;20212;-78
2021/07/30 02:53:33;;;;;;;1.60;1.10;;;14.40;99.90;;;;;;4960288;29;20189;-77
2021/07/30 02:55:59;;;;;;;4.03;1.73;;;14.40;99.90;;;;;;4957967;28;20263;-76
2021/07/30 02:58:25;;;;;;;2.90;1.30;;;14.40;99.90;;;;;;4954171;29;21089;-76
2021/07/30 03:00:51;;;;;;;2.55;1.25;;;14.40;99.90;;;;;;4958360;28;20197;-77
2021/07/30 03:03:16;;;;;;;2.42;1.23;;;14.30;99.90;;;;;;4958218;28;20181;-77
2021/07/30 03:05:42;;;;;;;1.30;1.20;;;14.30;99.90;;;;;;4957506;28;20240;-77
2021/07/30 03:08:07;;;;;;;2.53;1.40;;;14.30;99.90;;;;;;4955436;28;20603;-78
2021/07/30 03:10:33;;;;;;;1.65;1.10;;;14.20;99.90;;;;;;4952640;29;20190;-77
2021/07/30 03:12:59;;;;;;;1.85;1.40;;;14.20;99.90;;;;;;4955645;29;20714;-78
2021/07/30 03:15:24;;;;;;;1.58;1.15;;;14.20;99.90;;;;;;4958522;28;20256;-78
2021/07/30 03:17:50;;;;;;;2.35;1.38;;;14.20;99.90;;;;;;4958048;29;20595;-77
2021/07/30 03:20:15;;;;;;;1.95;1.20;;;14.20;99.90;;;;;;4956264;28;20189;-77
2021/07/30 03:22:41;;;;;;;2.20;1.48;;;14.10;99.90;;;;;;4959074;29;20686;-78
2021/07/30 03:25:07;;;;;;;1.48;1.00;;;;;;;;;;4958935;28;20245;-78
2021/07/30 03:27:33;;;;;;;2.35;1.60;;;14.00;99.90;;;;;;4957891;28;20814;-77
2021/07/30 03:29:58;;;;;;;2.28;1.48;;;13.80;99.90;;;;;;4957656;29;20198;-77
2021/07/30 03:32:24;;;;;;;3.08;1.25;;;13.90;99.90;;;;;;4964347;28;20197;-77
2021/07/30 03:34:50;;;;;;;2.33;1.35;;;13.80;99.90;;;;;;4969372;28;20252;-78
2021/07/30 03:37:15;;;;;;;2.80;1.30;;;13.60;99.90;;;;;;4971588;28;20224;-78
2021/07/30 03:39:41;;;;;;;1.70;1.30;;;13.50;99.90;;;;;;4969090;28;20182;-77
2021/07/30 03:42:07;;;;;;;1.88;1.20;;;13.50;99.90;;;;;;4972672;28;20200;-78
2021/07/30 03:44:33;;;;;;;1.00;0.95;;;13.50;99.90;;;;;;4973152;28;20194;-77
2021/07/30 03:46:59;;;;;;;2.15;1.65;;;13.40;99.90;;;;;;4972586;29;20225;-78
2021/07/30 03:49:25;;;;;;;1.17;1.08;;;13.40;99.90;;;;;;4973750;29;20193;-78
2021/07/30 03:51:50;;;;;;;1.50;1.40;;;13.50;99.90;;;;;;4972035;28;20345;-78
2021/07/30 03:54:17;;;;;;;2.47;1.60;;;13.50;99.90;;;;;;4972291;28;20197;-77
2021/07/30 03:56:44;;;;;;;1.60;1.45;;;13.60;99.90;;;;;;4971072;29;20213;-77
2021/07/30 03:59:10;;;;;;;2.05;1.42;;;13.60;99.90;;;;;;4971621;28;20186;-78
2021/07/30 04:01:35;;;;;;;2.25;1.33;;;13.60;99.90;;;;;;4973243;28;20218;-78
2021/07/30 04:04:01;;;;;;;4.65;1.67;;;13.70;99.90;;;;;;4969757;29;20257;-78
2021/07/30 04:06:27;;;;;;;1.60;1.13;;;13.70;99.90;;;;;;4967934;29;20711;-78
2021/07/30 04:08:52;;;;;;;1.70;1.27;;;13.80;99.90;;;;;;4958850;28;20200;-78
2021/07/30 04:11:18;;;;;;;1.80;1.40;;;13.80;99.90;;;;;;4958023;28;20276;-78
2021/07/30 04:13:46;;;;;;;2.03;1.27;;;13.90;99.90;;;;;;4958256;28;20201;-78
2021/07/30 04:16:12;;;;;;;2.15;1.35;;;14.00;99.90;;;;;;4957912;29;20213;-78
2021/07/30 04:18:37;;;;;;;2.13;1.30;;;14.10;99.90;;;;;;4957664;29;20199;-77
2021/07/30 04:21:07;;;;;;;1.55;1.30;;;14.20;99.90;;;;;;4956091;29;20283;-78
2021/07/30 04:23:34;;;;;;;2.22;1.30;;;14.30;99.90;;;;;;4969812;28;20276;-78
2021/07/30 04:26:00;;;;;;;1.95;1.50;;;14.40;99.90;;;;;;4955727;28;20216;-78
2021/07/30 04:28:25;;;;;;;1.50;1.20;;;14.50;99.90;;;;;;4955656;28;20193;-78
2021/07/30 04:30:51;;;;;;;2.22;1.52;;;14.60;99.90;;;;;;4955518;28;20181;-78
2021/07/30 04:33:17;;;;;;;2.33;1.13;;;14.60;99.90;;;;;;4955475;29;20194;-78
2021/07/30 04:35:42;;;;;;;1.52;1.42;;;14.60;99.90;;;;;;4954672;29;20221;-79
2021/07/30 04:38:08;;;;;;;2.15;1.60;;;14.80;99.90;;;;;;4956380;29;20832;-78
2021/07/30 04:40:35;;;;;;;3.92;1.20;;;14.90;99.90;;;;;;4956231;29;20189;-78
2021/07/30 04:43:01;;;;;;;2.47;1.08;;;14.90;99.90;;;;;;4955545;28;20201;-78
2021/07/30 04:45:26;;;;;;;1.35;1.20;;;14.90;99.90;;;;;;4955239;28;20231;-78
2021/07/30 04:47:52;;;;;;;2.30;1.85;;;15.20;99.90;;;;;;4955176;29;20210;-78
2021/07/30 04:50:18;;;;;;;2.40;1.20;;;15.80;99.90;;;;;;4955019;28;20256;-78
2021/07/30 04:52:44;;;;;;;1.52;1.10;;;16.40;99.90;;;;;;4954637;28;20221;-78
2021/07/30 04:55:10;;;;;;;1.48;1.00;;;16.70;99.90;;;;;;4954606;28;20256;-78
2021/07/30 04:57:35;;;;;;;1.88;1.20;;;17.20;99.90;;;;;;4954309;29;20189;-79
2021/07/30 05:00:01;;;;;;;1.48;1.05;;;18.10;99.90;;;;;;4954584;29;20178;-78
2021/07/30 05:02:26;;;;;;;1.88;1.02;;;18.90;99.90;;;;;;4954405;29;20200;-79
2021/07/30 05:04:56;;;;;;;2.67;0.80;;;19.60;99.90;;;;;;4952717;29;20610;-78
2021/07/30 05:07:25;;;;;;;0.68;0.68;;;20.10;99.90;;;;;;4953710;29;20184;-78
2021/07/30 05:09:51;;;;;;;1.05;1.00;;;20.50;99.90;;;;;;4967031;28;20186;-78
2021/07/30 05:12:16;;;;;;;2.13;1.02;;;21.00;99.90;;;;;;4949741;28;20820;-78
2021/07/30 05:14:42;;;;;;;1.40;1.10;;;21.40;99.90;;;;;;4951487;28;20719;-79
2021/07/30 05:17:08;;;;;;;1.83;1.10;;;21.80;99.90;;;;;;4951959;29;20588;-78
2021/07/30 05:19:34;;;;;;;2.35;0.80;;;22.10;99.90;;;;;;4950863;29;20698;-79
2021/07/30 05:21:59;;;;;;;0.70;0.70;;;22.80;99.90;;;;;;4950987;28;20302;-78
2021/07/30 05:24:25;;;;;;;1.38;0.90;;;23.20;99.90;;;;;;4946611;28;20193;-78
2021/07/30 05:26:50;;;;;;;1.25;1.15;;;23.30;99.90;;;;;;4952233;29;20210;-79
2021/07/30 05:29:16;;;;;;;1.77;1.23;;;23.40;99.90;;;;;;4954390;28;20185;-79
2021/07/30 05:31:41;;;;;;;1.38;0.98;;;23.50;99.90;;;;;;4953815;28;20564;-79
2021/07/30 05:34:07;;;;;;;1.23;0.93;;;23.50;99.90;;;;;;4952977;28;20181;-79
2021/07/30 05:36:33;;;;;;;1.92;1.05;;;23.90;99.90;;;;;;4955099;28;20217;-79
2021/07/30 05:38:58;;;;;;;1.00;0.90;;;24.10;99.90;;;;;;4954255;28;20178;-78
2021/07/30 05:41:24;;;;;;;1.80;1.30;;;24.30;99.90;;;;;;4953953;28;20200;-79
2021/07/30 05:43:50;;;;;;;1.60;1.10;;;24.40;99.90;;;;;;4954083;29;20185;-79
2021/07/30 05:46:18;;;;;;;1.40;1.00;;;24.40;99.90;;;;;;4954324;29;20201;-79
2021/07/30 05:48:45;;;;;;;1.30;0.80;;;24.80;99.90;;;;;;4953423;29;20181;-79
2021/07/30 05:51:12;;;;;;;2.42;1.63;;;24.70;99.90;;;;;;4954231;28;20755;-79
2021/07/30 05:53:38;;;;;;;2.53;1.25;;;24.90;99.90;;;;;;4951451;29;20196;-80
2021/07/30 05:56:04;;;;;;;2.42;1.15;;;25.10;99.90;;;;;;4949826;28;20224;-80
2021/07/30 05:58:31;;;;;;;1.70;1.35;;;25.30;99.90;;;;;;4951680;28;20182;-78
2021/07/30 06:00:57;;;;;;;1.83;1.20;;;25.50;99.90;;;;;;4951519;29;20264;-78
2021/07/30 06:03:22;;;;;;;1.85;0.93;;;25.50;99.90;;;;;;4950088;28;20968;-80
2021/07/30 06:05:48;;;;;;;2.00;1.00;;;25.50;99.90;;;;;;4949199;29;20205;-78
2021/07/30 06:08:14;;;;;;;1.48;1.20;;;25.50;99.90;;;;;;4951958;29;20236;-78
2021/07/30 06:10:39;;;;;;;1.90;1.13;;;25.60;99.20;;;;;;4948415;28;20189;-77
2021/07/30 06:13:05;;;;;;;2.45;1.02;;;25.70;99.20;;;;;;4947759;29;20227;-77
2021/07/30 06:15:31;;;;;;;3.42;1.40;;;25.50;99.20;;;;;;4945858;29;20213;-78
2021/07/30 06:17:56;;;;;;;2.08;1.30;;;25.80;98.50;;;;;;4948033;28;20192;-76
2021/07/30 06:20:24;;;;;;;1.80;1.20;;;26.00;98.20;;;;;;4946595;29;20186;-78
2021/07/30 06:22:50;;;;;;;1.48;1.08;;;26.00;97.60;;;;;;4951529;28;20659;-76
2021/07/30 06:25:16;;;;;;;1.23;1.13;;;26.20;96.90;;;;;;4950911;29;20213;-77
2021/07/30 06:27:41;;;;;;;1.60;1.33;;;26.20;96.40;;;;;;4952141;28;20185;-76
2021/07/30 06:30:08;;;;;;;1.75;1.30;;;26.10;96.80;;;;;;4951728;29;20636;-78
2021/07/30 06:32:42;;;;;;;2.88;1.27;;;26.10;96.00;;;;;;4951189;28;20679;-77
2021/07/30 06:35:10;;;;;;;1.17;1.08;;;26.20;95.80;;;;;;4951752;29;20308;-77
2021/07/30 06:37:37;;;;;;;2.30;1.35;;;25.80;95.90;;;;;;4952043;28;20606;-79
2021/07/30 06:40:04;;;;;;;1.35;1.20;;;25.70;94.90;;;;;;4952463;28;20182;-76
2021/07/30 06:42:33;;;;;;;1.67;1.15;;;25.30;95.20;;;;;;4951861;28;20190;-77
2021/07/30 06:44:59;;;;;;;1.27;0.90;;;24.80;95.80;;;;;;4951777;29;20225;-77
2021/07/30 06:47:25;;;;;;;1.95;1.27;;;24.10;96.40;;;;;;4950547;29;20186;-77
2021/07/30 06:49:50;;;;;;;3.65;1.48;;;23.70;97.70;;;;;;4947890;28;20182;-75
2021/07/30 06:52:25;;;;;;;1.55;1.15;;;23.20;98.10;;;;;;4947375;28;20186;-77
2021/07/30 06:54:54;;;;;;;2.80;1.40;;;22.70;99.90;;;;;;4950397;29;20193;-77
2021/07/30 06:57:23;;;;;;;1.40;1.30;;;22.50;99.40;;;;;;4951497;29;21059;-76
2021/07/30 06:59:49;;;;;;;2.38;1.23;;;22.70;99.40;;;;;;4951048;28;20185;-77
2021/07/30 07:02:15;;;;;;;1.38;0.93;;;22.60;99.70;;;;;;4948922;29;20181;-76
2021/07/30 07:04:40;;;;;;;1.80;1.02;;;22.40;99.90;;;;;;4950273;29;20189;-77
2021/07/30 07:07:06;;;;;;;1.35;1.08;;;22.30;99.90;;;;;;4946254;28;20209;-76
2021/07/30 07:09:32;;;;;;;2.72;1.38;;;22.10;99.90;;;;;;4946985;29;20835;-77
2021/07/30 07:11:57;;;;;;;1.98;1.20;;;22.00;99.90;;;;;;4950904;28;20220;-76
2021/07/30 07:14:23;;;;;;;3.20;1.02;;;22.00;99.90;;;;;;4950532;28;20197;-76
2021/07/30 07:16:48;;;;;;;2.33;0.98;;;22.00;99.90;;;;;;4950138;28;20292;-77
2021/07/30 07:19:14;;;;;;;1.10;0.98;;;22.20;99.90;;;;;;4948929;29;20229;-76
2021/07/30 07:21:41;;;;;;;3.42;1.33;;;22.20;99.90;;;;;;4948178;28;20312;-75
2021/07/30 07:24:07;;;;;;;3.47;1.20;;;22.10;99.90;;;;;;4946601;28;20264;-75
2021/07/30 07:26:36;;;;;;;1.27;1.17;;;22.20;99.90;;;;;;4948239;28;20209;-75
2021/07/30 07:29:01;;;;;;;1.33;1.13;;;22.30;99.90;;;;;;4947721;28;20291;-75
2021/07/30 07:31:27;;;;;;;1.35;1.20;;;22.40;99.90;;;;;;4947940;29;20230;-75
2021/07/30 07:33:52;;;;;;;4.68;1.05;;;22.10;99.90;;;;;;4944844;28;20261;-76
2021/07/30 07:36:18;;;;;;;1.88;0.98;;;22.10;99.90;;;;;;4948901;29;20283;-77
2021/07/30 07:38:44;;;;;;;2.65;1.10;;;22.10;99.90;;;;;;4949808;28;20727;-78
2021/07/30 07:41:10;;;;;;;2.90;1.00;;;21.90;99.90;;;;;;4947189;28;20196;-77
2021/07/30 07:43:38;;;;;;;1.65;0.98;;;21.90;99.90;;;;;;4946193;29;20192;-77
2021/07/30 07:46:04;;;;;;;1.60;0.80;;;21.90;99.90;;;;;;4947001;29;20202;-78
2021/07/30 07:48:30;;;;;;;1.23;1.00;;;22.00;99.90;;;;;;4948651;28;20200;-78
2021/07/30 07:50:55;;;;;;;1.30;1.10;;;22.10;99.90;;;;;;4949228;28;20703;-77
2021/07/30 07:53:21;;;;;;;1.52;1.00;;;22.30;99.90;;;;;;4946864;28;20917;-77
2021/07/30 07:55:48;;;;;;;2.67;1.38;;;22.30;99.90;;;;;;4947686;28;20301;-77
2021/07/30 07:58:14;;;;;;;2.85;1.20;;;22.40;99.90;;;;;;4951735;28;20193;-77
2021/07/30 08:00:41;;;;;;;2.50;1.42;;;22.30;99.90;;;;;;4951125;29;20646;-77
2021/07/30 08:03:06;;;;;;;1.88;0.90;;;22.40;99.90;;;;;;4951624;28;20177;-78
2021/07/30 08:05:32;;;;;;;2.03;1.38;;;22.30;99.90;;;;;;4950384;28;20216;-78
2021/07/30 08:07:58;;;;;;;4.13;1.50;;;22.30;99.90;;;;;;4951027;29;20643;-77
2021/07/30 08:10:24;;;;;;;1.92;1.35;;;22.50;99.90;;;;;;4950627;28;20189;-77
2021/07/30 08:12:49;;;;;;;2.15;1.13;;;22.80;99.90;;;;;;4950337;28;21262;-77
2021/07/30 08:15:15;;;;;;;1.90;1.20;;;23.00;99.90;;;;;;4950276;28;20607;-77
2021/07/30 08:17:41;;;;;;;2.05;1.25;;;23.10;99.90;;;;;;4950261;28;20189;-77
2021/07/30 08:20:08;;;;;;;2.70;1.20;;;23.10;99.90;;;;;;4950555;28;20190;-76
2021/07/30 08:22:34;;;;;;;2.33;1.30;;;23.00;99.90;;;;;;4949598;29;20228;-76
2021/07/30 08:25:00;;;;;;;1.30;1.10;;;23.20;99.90;;;;;;4948446;29;20186;-76
2021/07/30 08:27:26;;;;;;;1.77;1.40;;;23.40;99.90;;;;;;4951440;28;20264;-76
2021/07/30 08:29:51;;;;;;;1.10;1.00;;;23.60;99.90;;;;;;4948785;28;20276;-77
2021/07/30 08:32:17;;;;;;;2.38;1.42;;;23.50;99.90;;;;;;4946631;29;20901;-76
2021/07/30 08:34:44;;;;;;;1.73;1.20;;;23.50;99.90;;;;;;4947327;29;20189;-76
2021/07/30 08:37:10;;;;;;;1.23;1.13;;;23.50;99.90;;;;;;4946679;28;20731;-75
2021/07/30 08:39:37;;;;;;;1.95;1.52;;;23.70;99.90;;;;;;4944430;29;20182;-76
2021/07/30 08:42:05;;;;;;;1.33;1.23;;;23.80;99.90;;;;;;4944769;28;20272;-79
2021/07/30 08:44:32;;;;;;;1.95;1.20;;;23.90;99.90;;;;;;4945531;28;20182;-75
2021/07/30 08:46:58;;;;;;;2.45;1.55;;;23.90;99.90;;;;;;4945748;28;20233;-76
2021/07/30 08:49:24;;;;;;;2.65;1.20;;;23.80;99.90;;;;;;4945465;29;20189;-76
2021/07/30 08:51:59;;;;;;;3.47;1.48;;;24.00;99.90;;;;;;4944353;29;20182;-75
2021/07/30 08:54:24;;;;;;;3.08;1.52;;;24.00;99.90;;;;;;4944130;29;20283;-77
2021/07/30 08:56:50;;;;;;;3.13;1.55;;;24.00;99.90;;;;;;4948563;28;20284;-79
2021/07/30 08:59:16;;;;;;;1.55;1.10;;;24.00;99.90;;;;;;4945479;29;20855;-76
2021/07/30 09:01:41;;;;;;;3.53;1.50;;;24.30;99.90;;;;;;4946388;28;20233;-77
2021/07/30 09:04:07;;;;;;;1.48;0.95;;;24.20;99.90;;;;;;4946768;29;20218;-78
2021/07/30 09:06:32;;;;;;;1.52;1.10;;;24.30;99.90;;;;;;4946385;28;20248;-78
2021/07/30 09:09:01;;;;;;;2.17;1.33;;;24.30;99.90;;;;;;4946360;28;20189;-78
2021/07/30 09:11:30;;;;;;;4.32;1.20;;;24.30;99.90;;;;;;4945446;28;20707;-77
2021/07/30 09:13:57;;;;;;;2.20;1.00;;;24.50;99.90;;;;;;4947498;29;20194;-77
2021/07/30 09:16:23;;;;;;;3.85;1.60;;;24.70;99.90;;;;;;4946595;28;20213;-77
2021/07/30 09:18:49;;;;;;;1.25;1.10;;;24.80;99.70;;;;;;4945421;29;20182;-78
2021/07/30 09:21:19;;;;;;;2.70;1.45;;;25.00;99.40;;;;;;4943552;29;20181;-77
2021/07/30 09:23:50;;;;;;;0.98;0.90;;;24.80;99.00;;;;;;4943195;29;20660;-77
2021/07/30 09:26:34;;;;;;;1.45;1.08;;;24.60;99.00;;;;;;4944346;28;20607;-78
2021/07/30 09:29:03;;;;;;;1.38;1.05;;;24.80;99.80;;;;;;4944459;29;20191;-77
2021/07/30 09:31:42;;;;;;;2.22;1.40;;;24.90;99.70;;;;;;4936579;28;20471;-77
2021/07/30 09:34:25;;;;;;;3.17;1.48;;;24.80;99.60;;;;;;4944431;28;20499;-77
2021/07/30 09:36:54;;;;;;;1.38;1.23;;;24.80;99.90;;;;;;4944559;29;20742;-77
2021/07/30 09:39:22;;;;;;;1.38;1.00;;;24.60;99.00;;;;;;4944538;28;20706;-77
2021/07/30 09:41:52;;;;;;;1.48;0.90;;;24.70;99.30;;;;;;4943983;29;20185;-77
2021/07/30 09:44:19;;;;;;;1.38;0.93;;;24.90;99.40;;;;;;4944105;28;20919;-77
2021/07/30 09:47:21;;;;;;;1.85;1.05;;;25.00;97.50;;;;;;4942410;28;20213;-78
2021/07/30 09:50:05;;;;;;;1.25;0.95;;;24.90;96.90;;;;;;4944581;29;20221;-78
2021/07/30 09:52:34;;;;;;;1.00;0.90;;;24.80;97.10;;;;;;4945006;29;20249;-77
2021/07/30 09:55:01;;;;;;;2.40;0.98;;;24.70;96.90;;;;;;4944734;28;20193;-77
2021/07/30 09:57:45;;;;;;;1.05;0.90;;;24.60;97.20;;;;;;4945971;28;20190;-80
2021/07/30 10:00:14;;;;;;;1.27;0.70;;;24.50;98.00;;;;;;4943454;29;20580;-78
2021/07/30 10:02:46;;;;;;;1.40;0.82;;;24.40;97.20;;;;;;4943037;29;20189;-77
2021/07/30 10:05:16;;;;;;;2.25;1.00;;;24.50;97.40;;;;;;4943983;28;20178;-79
2021/07/30 10:07:42;;;;;;;2.50;1.10;;;24.60;97.60;;;;;;4945136;28;20675;-80
2021/07/30 10:12:46;;;;;;;1.10;1.00;;;24.80;96.60;;;;;;4944479;29;20206;-77
2021/07/30 10:15:11;;;;;;;1.45;0.80;;;24.80;97.60;;;;;;4943057;29;20216;-78
2021/07/30 10:17:42;;;;;;;1.30;1.05;;;24.80;97.90;;;;;;4945571;28;20182;-78
2021/07/30 10:20:10;;;;;;;1.10;0.80;;;24.90;97.30;;;;;;4943262;29;20186;-75
2021/07/30 10:22:48;;;;;;;0.80;0.80;;;24.80;96.10;;;;;;4942289;28;20189;-79
2021/07/30 10:25:21;;;;;;;0.98;0.82;;;24.30;95.90;;;;;;4945223;28;20388;-78
2021/07/30 10:27:48;;;;;;;1.05;0.85;;;24.50;96.80;;;;;;4944054;28;20185;-79
2021/07/30 10:30:16;;;;;;;1.17;0.90;;;24.80;96.40;;;;;;4944051;29;20186;-79
2021/07/30 10:32:48;;;;;;;1.38;1.08;;;25.20;96.20;;;;;;4945507;28;20272;-78
2021/07/30 10:35:15;;;;;;;0.60;0.55;;;25.00;96.30;;;;;;4943546;28;20209;-78
2021/07/30 10:37:42;;;;;;;1.00;0.80;;;25.20;95.80;;;;;;4943728;28;20569;-78
2021/07/30 10:40:28;;;;;;;1.02;0.85;;;25.20;95.70;;;;;;4945519;28;20260;-78
2021/07/30 10:43:12;;;;;;;1.20;1.10;;;25.10;95.50;;;;;;4944389;29;20213;-78
2021/07/30 10:45:38;;;;;;;2.25;1.00;;;25.20;96.60;;;;;;4943794;28;20214;-78
2021/07/30 10:48:29;;;;;;;2.72;1.10;;;25.60;96.50;;;;;;4945946;28;20201;-81
2021/07/30 10:51:05;;;;;;;1.45;0.85;;;25.80;95.10;;;;;;4943911;29;20272;-79
2021/07/30 10:53:32;;;;;;;1.85;1.02;;;25.70;95.60;;;;;;4944645;29;20568;-79
2021/07/30 10:55:59;;;;;;;1.45;0.70;;;25.50;94.80;;;;;;4942253;29;20998;-78
2021/07/30 10:58:39;;;;;;;0.65;0.60;;;25.50;94.70;;;;;;4945445;28;20229;-78
2021/07/30 11:01:09;;;;;;;2.45;0.80;;;25.80;94.50;;;;;;4944751;29;20186;-78
2021/07/30 11:06:39;;;;;;;0.80;0.80;;;26.10;93.70;;;;;;4944803;28;20512;-78
2021/07/30 11:09:08;;;;;;;1.02;0.90;;;26.10;93.60;;;;;;4934893;29;20220;-78
2021/07/30 11:11:47;;;;;;;0.85;0.80;;;25.80;93.30;;;;;;4947574;28;20252;-77
2021/07/30 11:14:12;;;;;;;1.25;1.00;;;25.80;93.30;;;;;;4947546;28;20186;-78
2021/07/30 11:16:49;;;;;;;0.80;0.77;;;25.70;93.10;;;;;;4945702;29;20218;-78
2021/07/30 11:19:16;;;;;;;1.00;0.90;;;25.70;93.40;;;;;;4947540;28;20275;-78
2021/07/30 11:21:42;;;;;;;0.85;0.77;;;25.60;93.60;;;;;;4946158;29;20272;-76
2021/07/30 11:24:09;;;;;;;0.93;0.93;;;25.60;93.90;;;;;;4947308;29;20269;-79
2021/07/30 11:26:37;;;;;;;2.30;0.80;;;25.70;93.70;;;;;;4946242;29;20213;-78
2021/07/30 11:29:09;;;;;;;2.72;0.90;;;25.50;93.20;;;;;;4935072;29;20209;-75
2021/07/30 11:31:39;;;;;;;0.85;0.77;;;25.40;93.30;;;;;;4944581;29;20202;-76
2021/07/30 11:34:10;;;;;;;1.77;0.80;;;25.60;93.50;;;;;;4946446;29;20668;-76
2021/07/30 11:36:35;;;;;;;2.15;0.90;;;25.90;92.90;;;;;;4946266;29;20612;-77
2021/07/30 11:39:01;;;;;;;1.08;0.98;;;25.80;93.50;;;;;;4947037;29;20284;-76
2021/07/30 11:41:26;;;;;;;1.13;0.98;;;26.00;93.60;;;;;;4945046;29;20276;-76
2021/07/30 11:44:04;;;;;;;0.80;0.80;;;26.10;92.80;;;;;;4946444;28;20189;-77
2021/07/30 11:46:31;;;;;;;1.20;0.80;;;26.30;92.60;;;;;;4948066;29;20224;-76
2021/07/30 11:48:57;;;;;;;0.75;0.75;;;26.40;92.30;;;;;;4950241;29;20185;-77
2021/07/30 11:51:23;;;;;;;1.80;1.00;;;26.40;92.10;;;;;;4947521;28;20190;-77
2021/07/30 11:53:51;;;;;;;1.55;0.90;;;26.30;91.80;;;;;;4945179;28;20192;-77
2021/07/30 11:56:18;;;;;;;0.68;0.68;;;26.60;92.00;;;;;;4946912;28;20230;-78
2021/07/30 11:59:00;;;;;;;1.80;1.10;;;26.40;91.60;;;;;;4947346;28;20186;-77
2021/07/30 12:01:27;;;;;;;2.45;0.80;;;26.50;92.60;;;;;;4947101;28;20360;-77
2021/07/30 12:04:15;;;;;;;1.65;0.98;;;26.60;91.60;;;;;;4945436;28;20201;-77
2021/07/30 12:06:53;;;;;;;1.48;0.85;;;26.70;91.60;;;;;;4946267;28;20209;-77
2021/07/30 12:09:20;;;;;;;1.23;1.08;;;26.70;92.00;;;;;;4945929;28;20225;-77
2021/07/30 12:11:51;;;;;;;1.17;0.80;;;26.60;92.30;;;;;;4946771;28;20217;-77
2021/07/30 12:14:18;;;;;;;1.83;1.00;;;26.80;92.00;;;;;;4945642;29;20611;-77
2021/07/30 12:16:44;;;;;;;1.00;0.80;;;27.10;90.80;;;;;;4947024;28;20221;-77
2021/07/30 12:19:10;;;;;;;1.08;1.08;;;27.10;92.30;;;;;;4947454;28;20209;-78
2021/07/30 12:21:36;;;;;;;1.83;0.90;;;27.60;90.90;;;;;;4945378;29;20189;-78
2021/07/30 12:24:06;;;;;;;0.90;0.88;;;27.50;91.50;;;;;;4947631;28;20208;-79
2021/07/30 12:26:34;;;;;;;1.17;0.90;;;27.30;91.80;;;;;;4945980;29;20205;-79
2021/07/30 12:28:59;;;;;;;1.15;0.80;;;27.40;91.50;;;;;;4947570;28;20186;-79
2021/07/30 12:31:26;;;;;;;1.55;0.90;;;27.60;91.70;;;;;;4945331;29;20185;-80
2021/07/30 12:34:19;;;;;;;1.58;1.02;;;27.50;90.90;;;;;;4947137;28;20280;-79
2021/07/30 12:36:45;;;;;;;1.48;1.35;;;27.70;91.00;;;;;;4947007;28;20345;-79
2021/07/30 12:39:11;;;;;;;0.80;0.80;;;27.90;90.40;;;;;;4946142;29;21121;-79
2021/07/30 12:41:37;;;;;;;1.00;0.93;;;27.80;90.10;;;;;;4945669;28;20230;-78
2021/07/30 12:44:10;;;;;;;1.00;1.00;;;27.80;90.30;;;;;;4945615;28;20559;-78
2021/07/30 12:46:45;;;;;;;1.48;0.80;;;27.60;90.70;;;;;;4947214;28;20209;-78
2021/07/30 12:49:12;;;;;;;1.27;1.08;;;27.40;89.70;;;;;;4945763;29;20217;-78
2021/07/30 12:51:40;;;;;;;1.83;0.85;;;27.30;90.10;;;;;;4945566;29;20197;-79
2021/07/30 12:54:07;;;;;;;1.00;0.80;;;27.60;90.30;;;;;;4947117;29;20185;-78